createdAt,value
2019-02-23T00:06:53.324Z,10.32
2019-02-23T00:16:59.264Z,12.25
2019-02-23T00:27:05.318Z,9.73
2019-02-23T00:37:11.163Z,11.22
2019-02-23T00:57:22.070Z,11.53
2019-02-23T01:07:27.974Z,8.28
2019-02-23T01:17:33.795Z,10.75
2019-02-23T01:27:39.735Z,8.53
2019-02-23T01:47:50.730Z,7.80
2019-02-23T01:57:56.560Z,8.03
2019-02-23T02:08:02.450Z,9.65
2019-02-23T02:18:08.307Z,7.12
2019-02-23T02:38:19.037Z,7.25
2019-02-23T02:48:24.857Z,5.83
2019-02-23T02:58:30.840Z,7.92
2019-02-23T03:18:41.818Z,9.10
2019-02-23T03:28:47.644Z,9.98
2019-02-23T03:38:53.495Z,6.97
2019-02-23T03:48:59.396Z,5.92
2019-02-23T03:59:05.289Z,9.10
2019-02-23T04:09:11.042Z,7.53
2019-02-23T04:19:16.943Z,7.55
2019-02-23T04:29:22.840Z,7.70
2019-02-23T04:49:33.474Z,8.95
2019-02-23T04:59:39.269Z,10.25
2019-02-23T05:09:45.106Z,8.53
2019-02-23T05:19:50.958Z,8.93
2019-02-23T05:29:56.809Z,12.53
2019-02-23T05:40:02.630Z,9.73
2019-02-23T06:00:16.449Z,29.50
2019-02-23T06:10:22.344Z,33.38
2019-02-23T06:20:28.273Z,29.10
2019-02-23T06:30:34.198Z,17.82
2019-02-23T06:40:40.210Z,17.57
2019-02-23T07:00:51.000Z,13.85
2019-02-23T07:10:57.041Z,13.48
2019-02-23T07:21:02.980Z,14.50
2019-02-23T07:31:08.888Z,13.18
2019-02-23T07:41:14.801Z,10.20
2019-02-23T07:51:20.559Z,14.68
2019-02-23T08:01:26.415Z,13.72
2019-02-23T08:11:32.151Z,9.85
2019-02-23T08:21:38.024Z,49.05
2019-02-23T08:31:43.963Z,36.77
2019-02-23T08:41:49.730Z,162.92
2019-02-23T08:51:55.587Z,88.40
2019-02-23T09:02:01.506Z,81.80
2019-02-23T09:12:07.327Z,89.50
2019-02-23T09:22:14.168Z,66.97
2019-02-23T09:32:20.083Z,63.05
2019-02-23T09:42:25.966Z,60.55
2019-02-23T09:52:31.865Z,45.08
2019-02-23T10:02:37.700Z,43.87
2019-02-23T10:12:43.586Z,33.85
2019-02-23T10:22:49.421Z,28.02
2019-02-23T10:32:55.285Z,26.77
2019-02-23T10:43:01.140Z,20.97
2019-02-23T10:53:07.112Z,18.77
2019-02-23T11:13:18.013Z,13.75
2019-02-23T11:23:24.030Z,23.02
2019-02-23T11:33:30.849Z,14.23
2019-02-23T11:43:36.721Z,13.15
2019-02-23T11:53:42.766Z,14.80
2019-02-23T12:03:48.596Z,12.05
2019-02-23T12:13:54.523Z,11.95
2019-02-23T12:24:06.051Z,13.15
2019-02-23T12:34:08.143Z,13.70
2019-02-23T12:44:14.066Z,11.35
2019-02-23T12:54:20.021Z,12.65
2019-02-23T13:04:25.989Z,18.37
2019-02-23T13:14:48.656Z,52.55
2019-02-23T13:25:13.825Z,39.95
2019-02-23T13:35:54.166Z,32.55
2019-02-23T13:46:18.057Z,30.35
2019-02-23T13:56:46.595Z,29.90
2019-02-23T14:07:11.810Z,25.35
2019-02-23T14:17:43.505Z,20.65
2019-02-23T14:28:36.157Z,55.75
2019-02-23T14:38:58.586Z,60.73
2019-02-23T14:49:18.112Z,49.18
2019-02-23T14:59:46.142Z,66.85
2019-02-23T15:10:17.711Z,97.70
2019-02-23T15:20:40.231Z,63.55
2019-02-23T15:31:12.649Z,95.53
2019-02-23T15:41:35.004Z,95.32
2019-02-23T15:51:40.960Z,102.40
2019-02-23T16:01:47.777Z,70.35
2019-02-23T16:21:58.580Z,67.08
2019-02-23T16:32:04.503Z,81.08
2019-02-23T16:42:10.361Z,84.83
2019-02-23T16:52:16.188Z,73.90
2019-02-23T17:02:21.948Z,48.13
2019-02-23T17:12:28.101Z,90.62
2019-02-23T17:22:33.954Z,60.30
2019-02-23T17:32:39.836Z,48.70
2019-02-23T17:42:45.693Z,61.63
2019-02-23T17:52:51.612Z,56.45
2019-02-23T18:02:57.435Z,99.70
2019-02-23T18:13:03.553Z,97.00
2019-02-23T18:23:09.622Z,79.72
2019-02-23T18:33:15.639Z,67.58
2019-02-23T18:53:26.723Z,100.00
2019-02-23T19:03:32.831Z,106.97
2019-02-23T19:13:38.676Z,93.37
2019-02-23T19:23:44.573Z,88.42
2019-02-23T19:33:50.474Z,80.67
2019-02-23T19:43:56.759Z,67.67
2019-02-23T19:54:02.723Z,65.55
2019-02-23T20:04:08.702Z,72.58
2019-02-23T20:14:14.752Z,52.45
2019-02-23T20:24:20.885Z,50.48
2019-02-23T20:34:27.000Z,53.63
2019-02-23T20:44:33.163Z,50.15
2019-02-23T21:04:44.598Z,36.70
2019-02-23T21:14:50.577Z,32.33
2019-02-23T21:35:01.414Z,32.05
2019-02-23T21:45:09.955Z,36.03
2019-02-23T21:55:15.816Z,33.00
2019-02-23T22:05:21.780Z,28.65
2019-02-23T22:15:27.894Z,32.17
2019-02-23T22:25:33.898Z,33.67
2019-02-23T22:35:39.793Z,27.15
2019-02-23T22:45:45.710Z,27.10
2019-02-23T22:55:51.880Z,22.27
2019-02-23T23:16:02.874Z,19.77
2019-02-23T23:26:08.783Z,20.40
2019-02-23T23:36:14.713Z,18.42
2019-02-23T23:46:20.494Z,17.00
